createdAt,value
2019-05-03T00:02:28.504Z,62.49
2019-05-03T00:05:27.379Z,62.60
2019-05-03T00:08:07.212Z,62.35
2019-05-03T00:10:42.444Z,62.41
2019-05-03T00:13:15.425Z,62.43
2019-05-03T00:16:09.922Z,62.35
2019-05-03T00:18:42.535Z,62.21
2019-05-03T00:21:14.418Z,62.29
2019-05-03T00:23:46.290Z,62.38
2019-05-03T00:26:18.180Z,62.36
2019-05-03T00:28:51.890Z,62.36
2019-05-03T00:31:23.836Z,62.36
2019-05-03T00:33:59.942Z,62.52
2019-05-03T00:36:45.790Z,62.48
2019-05-03T00:39:26.213Z,62.48
2019-05-03T00:41:58.094Z,62.58
2019-05-03T00:44:31.600Z,62.67
2019-05-03T00:47:03.610Z,62.86
2019-05-03T00:49:35.345Z,62.90
2019-05-03T00:52:07.146Z,63.06
2019-05-03T00:54:38.907Z,63.06
2019-05-03T00:57:12.076Z,63.00
2019-05-03T00:59:44.092Z,63.03
2019-05-03T01:02:16.264Z,63.08
2019-05-03T01:04:48.069Z,63.01
2019-05-03T01:07:22.103Z,63.02
2019-05-03T01:09:53.552Z,62.85
2019-05-03T01:12:25.406Z,62.93
2019-05-03T01:15:01.980Z,63.32
2019-05-03T01:17:36.589Z,63.54
2019-05-03T01:20:08.479Z,63.80
2019-05-03T01:22:42.434Z,63.36
2019-05-03T01:25:14.286Z,63.59
2019-05-03T01:27:46.228Z,63.58
2019-05-03T01:30:18.446Z,63.56
2019-05-03T01:32:52.222Z,63.28
2019-05-03T01:35:23.934Z,63.32
2019-05-03T01:37:55.981Z,63.00
2019-05-03T01:40:27.794Z,62.78
2019-05-03T01:42:59.619Z,62.85
2019-05-03T01:45:31.915Z,62.78
2019-05-03T01:48:13.878Z,62.62
2019-05-03T01:51:02.913Z,62.42
2019-05-03T01:53:36.035Z,61.97
2019-05-03T01:56:07.814Z,61.51
2019-05-03T01:58:41.742Z,61.37
2019-05-03T02:01:22.079Z,60.88
2019-05-03T02:04:04.128Z,60.75
2019-05-03T02:06:35.893Z,60.40
2019-05-03T02:09:09.733Z,60.30
2019-05-03T02:11:42.195Z,59.80
2019-05-03T02:14:14.428Z,59.72
2019-05-03T02:16:46.509Z,59.61
2019-05-03T02:19:18.602Z,59.53
2019-05-03T02:21:52.212Z,59.63
2019-05-03T02:24:24.064Z,59.38
2019-05-03T02:26:55.861Z,59.54
2019-05-03T02:29:27.786Z,59.51
2019-05-03T02:32:02.980Z,59.54
2019-05-03T02:34:33.683Z,59.80
2019-05-03T02:37:05.676Z,59.75
2019-05-03T02:39:37.773Z,59.70
2019-05-03T02:42:11.574Z,59.57
2019-05-03T02:44:45.907Z,59.84
2019-05-03T02:47:29.204Z,59.59
2019-05-03T02:50:06.159Z,59.65
2019-05-03T02:52:38.238Z,59.64
2019-05-03T02:55:11.886Z,59.54
2019-05-03T02:57:46.657Z,59.60
2019-05-03T03:00:19.531Z,59.64
2019-05-03T03:02:51.690Z,59.95
2019-05-03T03:05:25.263Z,59.92
2019-05-03T03:07:57.797Z,59.85
2019-05-03T03:10:30.849Z,59.83
2019-05-03T03:13:06.544Z,60.04
2019-05-03T03:15:45.677Z,59.95
2019-05-03T03:18:19.936Z,60.06
2019-05-03T03:20:56.144Z,60.33
2019-05-03T03:23:35.318Z,60.30
2019-05-03T03:26:07.923Z,60.49
2019-05-03T03:28:42.473Z,60.43
2019-05-03T03:32:29.697Z,60.79
2019-05-03T03:35:31.092Z,60.77
2019-05-03T03:38:05.727Z,61.18
2019-05-03T03:40:39.283Z,61.18
2019-05-03T03:43:15.696Z,61.17
2019-05-03T03:45:49.596Z,60.84
2019-05-03T03:48:26.344Z,61.08
2019-05-03T03:50:59.144Z,61.13
2019-05-03T03:53:35.578Z,61.11
2019-05-03T03:56:09.213Z,61.00
2019-05-03T03:58:41.057Z,60.88
2019-05-03T04:01:15.626Z,61.53
2019-05-03T04:03:47.324Z,61.65
2019-05-03T04:06:21.127Z,61.44
2019-05-03T04:08:56.090Z,61.58
2019-05-03T04:11:27.209Z,61.71
2019-05-03T04:14:00.598Z,61.95
2019-05-03T04:16:39.191Z,62.39
2019-05-03T04:19:17.619Z,62.40
2019-05-03T04:21:49.862Z,62.87
2019-05-03T04:24:21.966Z,63.19
2019-05-03T04:27:15.521Z,63.59
2019-05-03T04:29:40.245Z,63.56
2019-05-03T04:32:12.009Z,64.30
2019-05-03T04:34:45.413Z,64.24
2019-05-03T04:37:17.490Z,63.98
2019-05-03T04:39:49.612Z,64.14
2019-05-03T04:42:21.426Z,64.69
2019-05-03T04:44:55.963Z,65.03
2019-05-03T04:47:26.927Z,65.99
2019-05-03T04:49:58.753Z,67.50
2019-05-03T04:52:30.840Z,67.92
2019-05-03T04:55:02.759Z,67.08
2019-05-03T04:57:40.712Z,67.00
2019-05-03T05:00:11.708Z,66.89
2019-05-03T05:02:45.751Z,67.08
2019-05-03T05:05:17.445Z,66.54
2019-05-03T05:07:49.482Z,65.11
2019-05-03T05:10:21.472Z,65.89
2019-05-03T05:12:55.177Z,65.71
2019-05-03T05:15:26.920Z,65.09
2019-05-03T05:18:26.170Z,65.46
2019-05-03T05:21:11.416Z,65.92
2019-05-03T05:24:05.292Z,65.14
2019-05-03T05:26:45.447Z,65.26
2019-05-03T05:29:19.336Z,65.25
2019-05-03T05:31:51.431Z,64.83
2019-05-03T05:34:24.609Z,65.24
2019-05-03T05:36:56.794Z,64.93
2019-05-03T05:39:28.872Z,64.57
2019-05-03T05:42:00.702Z,64.54
2019-05-03T05:44:32.623Z,64.81
2019-05-03T05:47:25.289Z,64.71
2019-05-03T05:50:06.864Z,64.72
2019-05-03T05:52:38.887Z,64.50
2019-05-03T05:55:28.841Z,64.76
2019-05-03T05:58:12.391Z,64.08
2019-05-03T06:00:59.709Z,63.40
2019-05-03T06:03:31.544Z,61.95
2019-05-03T06:06:05.934Z,60.62
2019-05-03T06:08:44.716Z,60.32
2019-05-03T06:11:27.928Z,59.17
2019-05-03T06:14:11.898Z,58.87
2019-05-03T06:16:50.201Z,59.00
2019-05-03T06:19:35.530Z,58.33
2019-05-03T06:22:25.681Z,57.83
2019-05-03T06:25:07.075Z,58.29
2019-05-03T06:27:39.923Z,58.49
2019-05-03T06:30:27.017Z,56.99
2019-05-03T06:32:58.887Z,56.81
2019-05-03T06:35:31.012Z,56.95
2019-05-03T06:38:04.816Z,56.68
2019-05-03T06:40:36.481Z,56.45
2019-05-03T06:43:12.655Z,56.76
2019-05-03T06:45:49.073Z,56.45
2019-05-03T06:48:17.563Z,55.01
2019-05-03T06:50:49.239Z,55.32
2019-05-03T06:53:21.064Z,55.93
2019-05-03T06:55:55.252Z,55.35
2019-05-03T06:58:33.159Z,55.77
2019-05-03T07:01:22.394Z,55.83
2019-05-03T07:04:01.631Z,55.99
2019-05-03T07:06:46.627Z,56.26
2019-05-03T07:09:44.459Z,56.29
2019-05-03T07:12:16.593Z,56.42
2019-05-03T07:14:50.472Z,57.45
2019-05-03T07:17:24.743Z,57.07
2019-05-03T07:19:56.471Z,57.16
2019-05-03T07:22:28.267Z,56.60
2019-05-03T07:25:00.067Z,56.67
2019-05-03T07:27:32.101Z,56.10
2019-05-03T07:30:04.846Z,56.00
2019-05-03T07:32:39.097Z,55.96
2019-05-03T07:35:11.017Z,56.03
2019-05-03T07:37:44.994Z,55.75
2019-05-03T07:40:16.822Z,55.33
2019-05-03T07:42:48.893Z,55.39
2019-05-03T07:45:20.737Z,55.81
2019-05-03T07:47:52.576Z,55.26
2019-05-03T07:50:25.931Z,55.16
2019-05-03T07:52:58.078Z,55.32
2019-05-03T07:55:47.373Z,55.15
2019-05-03T07:58:21.976Z,54.06
2019-05-03T08:01:05.859Z,54.32
2019-05-03T08:03:31.038Z,54.47
2019-05-03T08:06:04.756Z,55.22
2019-05-03T08:08:36.700Z,54.63
2019-05-03T08:11:08.797Z,55.18
2019-05-03T08:13:40.821Z,54.90
2019-05-03T08:16:12.587Z,55.78
2019-05-03T08:18:45.742Z,54.87
2019-05-03T08:21:17.707Z,54.59
2019-05-03T08:23:49.701Z,54.84
2019-05-03T08:26:21.484Z,54.77
2019-05-03T08:28:54.470Z,54.49
2019-05-03T08:31:54.734Z,54.19
2019-05-03T08:34:49.445Z,54.19
2019-05-03T08:37:35.227Z,54.17
2019-05-03T08:40:07.854Z,55.08
2019-05-03T08:42:39.596Z,55.44
2019-05-03T08:45:11.875Z,55.90
2019-05-03T08:47:45.024Z,56.71
2019-05-03T08:50:21.351Z,57.15
2019-05-03T08:52:50.700Z,58.07
2019-05-03T08:55:24.850Z,58.25
2019-05-03T08:57:56.181Z,58.05
2019-05-03T09:00:29.726Z,57.91
2019-05-03T09:03:01.554Z,57.96
2019-05-03T09:05:35.795Z,57.04
2019-05-03T09:08:07.043Z,55.74
2019-05-03T09:10:51.555Z,55.79
2019-05-03T09:13:25.145Z,55.44
2019-05-03T09:15:57.253Z,55.72
2019-05-03T09:18:29.156Z,56.41
2019-05-03T09:21:00.967Z,55.15
2019-05-03T09:23:32.835Z,53.59
2019-05-03T09:26:04.901Z,51.84
2019-05-03T09:28:36.824Z,51.11
2019-05-03T09:31:08.790Z,50.21
2019-05-03T09:33:40.943Z,50.40
2019-05-03T09:36:14.701Z,50.61
2019-05-03T09:38:46.459Z,50.78
2019-05-03T09:41:18.416Z,50.60
2019-05-03T09:43:50.237Z,50.36
2019-05-03T09:46:24.253Z,49.74
2019-05-03T09:49:09.521Z,49.53
2019-05-03T09:51:29.709Z,48.98
2019-05-03T09:54:08.040Z,48.22
2019-05-03T09:56:58.968Z,48.64
2019-05-03T09:59:31.924Z,47.47
2019-05-03T10:02:04.725Z,45.86
2019-05-03T10:04:37.250Z,46.07
2019-05-03T10:07:09.587Z,45.83
2019-05-03T10:09:41.376Z,45.34
2019-05-03T10:12:19.167Z,44.61
2019-05-03T10:14:51.046Z,43.87
2019-05-03T10:17:55.503Z,41.34
2019-05-03T10:20:28.286Z,41.40
2019-05-03T10:23:07.050Z,40.94
2019-05-03T10:25:40.447Z,40.12
2019-05-03T10:28:12.614Z,40.87
2019-05-03T10:30:45.050Z,42.12
2019-05-03T10:33:25.814Z,41.11
2019-05-03T10:35:57.143Z,40.64
2019-05-03T10:38:29.085Z,40.88
2019-05-03T10:41:00.914Z,40.18
2019-05-03T10:43:32.875Z,39.80
2019-05-03T10:46:05.247Z,39.05
2019-05-03T10:48:37.437Z,38.53
2019-05-03T10:51:09.196Z,38.77
2019-05-03T10:53:45.452Z,37.44
2019-05-03T10:56:31.383Z,38.11
2019-05-03T10:59:06.209Z,37.96
2019-05-03T11:02:15.427Z,36.97
2019-05-03T11:04:47.669Z,37.22
2019-05-03T11:07:19.737Z,35.33
2019-05-03T11:09:55.085Z,36.78
2019-05-03T11:12:27.183Z,36.57
2019-05-03T11:14:59.474Z,31.16
2019-05-03T11:17:31.855Z,32.28
2019-05-03T11:20:05.261Z,33.99
2019-05-03T11:22:37.364Z,32.29
2019-05-03T11:25:09.653Z,31.50
2019-05-03T11:27:47.061Z,31.21
2019-05-03T11:30:19.353Z,31.74
2019-05-03T11:32:59.119Z,30.25
2019-05-03T11:35:56.109Z,30.27
2019-05-03T11:38:34.944Z,30.28
2019-05-03T11:41:07.303Z,30.29
2019-05-03T11:43:39.124Z,30.22
2019-05-03T11:46:10.941Z,30.26
2019-05-03T11:48:42.871Z,30.79
2019-05-03T11:51:15.263Z,28.99
2019-05-03T11:53:47.349Z,28.16
2019-05-03T11:56:19.162Z,28.29
2019-05-03T11:58:50.980Z,27.86
2019-05-03T12:01:28.077Z,28.93
2019-05-03T12:04:04.960Z,27.77
2019-05-03T12:06:37.449Z,26.53
2019-05-03T12:09:09.553Z,26.39
2019-05-03T12:11:42.151Z,25.45
2019-05-03T12:14:15.463Z,24.63
2019-05-03T12:17:16.074Z,23.87
2019-05-03T12:19:31.205Z,24.87
2019-05-03T12:22:01.835Z,25.40
2019-05-03T12:24:36.428Z,24.96
2019-05-03T12:27:08.046Z,23.61
2019-05-03T12:29:39.801Z,23.81
2019-05-03T12:32:11.877Z,23.95
2019-05-03T12:34:43.643Z,22.15
2019-05-03T12:37:16.105Z,22.77
2019-05-03T12:39:47.882Z,21.59
2019-05-03T12:42:19.795Z,20.94
2019-05-03T12:44:51.650Z,21.49
2019-05-03T12:47:25.160Z,21.05
2019-05-03T12:49:58.530Z,19.15
2019-05-03T12:52:31.166Z,17.72
2019-05-03T12:55:04.560Z,16.86
2019-05-03T12:57:36.938Z,14.39
2019-05-03T13:00:34.515Z,16.08
2019-05-03T13:03:10.474Z,15.47
2019-05-03T13:05:42.412Z,12.92
2019-05-03T13:08:39.545Z,12.97
2019-05-03T13:11:11.353Z,12.76
2019-05-03T13:13:45.247Z,12.70
2019-05-03T13:16:19.779Z,11.07
2019-05-03T13:18:51.664Z,11.67
2019-05-03T13:21:25.227Z,11.42
2019-05-03T13:23:57.525Z,12.39
2019-05-03T13:26:29.290Z,10.47
2019-05-03T13:29:01.247Z,11.33
2019-05-03T13:31:34.664Z,14.86
2019-05-03T13:34:06.915Z,16.65
2019-05-03T13:36:38.712Z,15.60
2019-05-03T13:39:14.397Z,16.36
2019-05-03T13:41:45.557Z,15.89
2019-05-03T13:44:17.814Z,16.10
2019-05-03T13:46:49.571Z,15.50
2019-05-03T13:49:21.543Z,13.20
2019-05-03T13:51:53.321Z,10.50
2019-05-03T13:54:25.697Z,8.80
2019-05-03T13:56:57.725Z,7.51
2019-05-03T13:59:29.836Z,6.76
2019-05-03T14:02:13.491Z,6.27
2019-05-03T14:04:48.745Z,5.84
2019-05-03T14:07:08.936Z,5.40
2019-05-03T14:09:41.451Z,5.81
2019-05-03T14:12:15.296Z,8.34
2019-05-03T14:14:56.552Z,11.65
2019-05-03T14:17:29.596Z,14.05
2019-05-03T14:20:09.745Z,11.37
2019-05-03T14:22:43.459Z,11.32
2019-05-03T14:25:15.671Z,13.33
2019-05-03T14:27:47.711Z,15.26
2019-05-03T14:30:21.221Z,16.70
2019-05-03T14:32:53.007Z,17.23
2019-05-03T14:35:25.462Z,17.79
2019-05-03T14:37:57.304Z,19.02
2019-05-03T14:40:29.311Z,20.42
2019-05-03T14:43:01.201Z,20.78
2019-05-03T14:45:34.840Z,18.03
2019-05-03T14:48:06.706Z,14.92
2019-05-03T14:50:38.616Z,13.11
2019-05-03T14:53:10.552Z,11.20
2019-05-03T14:56:05.404Z,9.36
2019-05-03T14:59:00.992Z,9.32
2019-05-03T15:01:38.685Z,7.30
2019-05-03T15:04:10.791Z,7.29
2019-05-03T15:06:42.813Z,8.90
2019-05-03T15:09:18.847Z,11.52
2019-05-03T15:11:49.330Z,14.38
2019-05-03T15:14:21.513Z,11.70
2019-05-03T15:16:55.598Z,9.36
2019-05-03T15:19:27.066Z,8.31
2019-05-03T15:21:59.177Z,10.29
2019-05-03T15:24:31.049Z,14.39
2019-05-03T15:27:04.884Z,14.86
2019-05-03T15:29:36.944Z,14.65
2019-05-03T15:32:08.786Z,12.57
2019-05-03T15:34:40.691Z,9.99
2019-05-03T15:37:14.696Z,8.94
2019-05-03T15:39:46.062Z,8.45
2019-05-03T15:42:20.210Z,7.82
2019-05-03T15:45:11.289Z,7.91
2019-05-03T15:48:02.165Z,7.95
2019-05-03T15:50:35.532Z,7.89
2019-05-03T15:53:08.051Z,7.52
2019-05-03T15:55:39.846Z,8.11
2019-05-03T15:58:12.150Z,9.16
2019-05-03T16:00:47.205Z,10.51
2019-05-03T16:03:19.399Z,9.66
2019-05-03T16:05:51.338Z,10.88
2019-05-03T16:08:24.824Z,12.44
2019-05-03T16:10:57.135Z,15.65
2019-05-03T16:13:29.238Z,17.36
2019-05-03T16:16:01.059Z,18.33
2019-05-03T16:18:32.926Z,19.26
2019-05-03T16:21:05.687Z,19.94
2019-05-03T16:23:37.812Z,20.24
2019-05-03T16:26:09.623Z,19.53
2019-05-03T16:28:55.774Z,18.94
2019-05-03T16:31:27.650Z,16.96
2019-05-03T16:33:59.574Z,17.59
2019-05-03T16:36:31.414Z,18.96
2019-05-03T16:39:04.760Z,19.21
2019-05-03T16:41:38.477Z,18.21
2019-05-03T16:44:10.596Z,17.70
2019-05-03T16:46:42.759Z,18.59
2019-05-03T16:49:15.882Z,18.63
2019-05-03T16:51:47.690Z,20.48
2019-05-03T16:54:19.587Z,21.30
2019-05-03T16:56:51.530Z,22.30
2019-05-03T16:59:24.747Z,23.57
2019-05-03T17:01:56.742Z,24.30
2019-05-03T17:04:36.895Z,24.69
2019-05-03T17:07:25.712Z,25.41
2019-05-03T17:10:02.311Z,25.59
2019-05-03T17:12:34.819Z,26.14
2019-05-03T17:15:08.089Z,26.25
2019-05-03T17:17:40.032Z,27.43
2019-05-03T17:20:12.357Z,27.63
2019-05-03T17:22:45.007Z,27.85
2019-05-03T17:25:17.024Z,27.99
2019-05-03T17:27:48.846Z,28.43
2019-05-03T17:30:25.116Z,28.39
2019-05-03T17:32:55.975Z,28.73
2019-05-03T17:35:28.094Z,28.71
2019-05-03T17:37:59.955Z,28.83
2019-05-03T17:40:57.012Z,28.99
2019-05-03T17:43:34.530Z,29.36
2019-05-03T17:46:07.880Z,29.45
2019-05-03T17:48:39.939Z,29.94
2019-05-03T17:51:30.748Z,30.02
2019-05-03T17:54:11.525Z,29.96
2019-05-03T17:56:59.256Z,30.13
2019-05-03T17:59:54.862Z,30.41
2019-05-03T18:02:47.223Z,30.99
2019-05-03T18:05:37.971Z,30.89
2019-05-03T18:08:35.551Z,31.09
2019-05-03T18:11:11.487Z,31.41
2019-05-03T18:13:44.615Z,31.73
2019-05-03T18:16:16.773Z,31.68
2019-05-03T18:18:48.748Z,31.58
2019-05-03T18:21:20.675Z,31.98
2019-05-03T18:23:54.545Z,32.24
2019-05-03T18:26:26.596Z,32.23
2019-05-03T18:28:58.737Z,32.40
2019-05-03T18:31:30.839Z,32.58
2019-05-03T18:34:06.321Z,32.40
2019-05-03T18:36:37.912Z,32.50
2019-05-03T18:39:11.342Z,32.67
2019-05-03T18:41:45.050Z,32.95
2019-05-03T18:44:44.962Z,33.08
2019-05-03T18:47:20.433Z,33.38
2019-05-03T18:49:52.456Z,33.94
2019-05-03T18:52:24.516Z,34.92
2019-05-03T18:54:56.501Z,36.24
2019-05-03T18:57:28.342Z,36.61
2019-05-03T19:00:00.269Z,36.38
2019-05-03T19:02:32.139Z,36.00
2019-05-03T19:05:05.094Z,36.09
2019-05-03T19:07:55.385Z,36.38
2019-05-03T19:10:36.207Z,37.06
2019-05-03T19:13:15.039Z,37.78
2019-05-03T19:15:47.058Z,38.39
2019-05-03T19:18:27.747Z,39.20
2019-05-03T19:20:59.634Z,39.78
2019-05-03T19:23:31.577Z,39.87
2019-05-03T19:26:05.398Z,40.52
2019-05-03T19:28:36.931Z,41.01
2019-05-03T19:31:09.313Z,41.08
2019-05-03T19:33:41.185Z,40.88
2019-05-03T19:36:13.248Z,41.45
2019-05-03T19:38:45.045Z,41.94
2019-05-03T19:41:17.238Z,42.61
2019-05-03T19:43:49.174Z,42.99
2019-05-03T19:46:21.362Z,43.44
2019-05-03T19:48:54.723Z,44.13
2019-05-03T19:51:27.136Z,44.73
2019-05-03T19:53:58.931Z,45.00
2019-05-03T19:56:31.173Z,44.95
2019-05-03T19:59:06.809Z,45.12
2019-05-03T20:02:00.740Z,44.90
2019-05-03T20:05:00.777Z,45.14
2019-05-03T20:07:42.932Z,46.00
2019-05-03T20:10:17.864Z,46.44
2019-05-03T20:12:48.761Z,46.92
2019-05-03T20:15:20.531Z,47.23
2019-05-03T20:17:59.273Z,47.51
2019-05-03T20:20:26.054Z,47.73
2019-05-03T20:22:59.087Z,47.77
2019-05-03T20:25:31.286Z,47.67
2019-05-03T20:28:04.966Z,47.71
2019-05-03T20:30:37.636Z,48.22
2019-05-03T20:33:09.732Z,48.55
2019-05-03T20:35:41.565Z,48.49
2019-05-03T20:38:15.236Z,48.37
2019-05-03T20:40:47.469Z,48.53
2019-05-03T20:43:47.901Z,48.91
2019-05-03T20:46:28.429Z,49.26
2019-05-03T20:49:04.422Z,49.45
2019-05-03T20:51:36.600Z,50.02
2019-05-03T20:54:09.299Z,50.25
2019-05-03T20:56:41.376Z,50.10
2019-05-03T20:59:14.776Z,50.46
2019-05-03T21:01:46.789Z,50.86
2019-05-03T21:04:19.660Z,50.56
2019-05-03T21:06:51.644Z,50.37
2019-05-03T21:09:24.129Z,50.54
2019-05-03T21:11:55.933Z,50.91
2019-05-03T21:14:27.938Z,51.09
2019-05-03T21:17:16.536Z,51.09
2019-05-03T21:20:03.566Z,50.83
2019-05-03T21:22:44.237Z,49.91
2019-05-03T21:25:21.495Z,49.16
2019-05-03T21:27:55.408Z,49.21
2019-05-03T21:30:27.338Z,48.74
2019-05-03T21:32:59.136Z,48.49
2019-05-03T21:35:40.849Z,48.39
2019-05-03T21:38:04.512Z,48.48
2019-05-03T21:40:36.623Z,48.82
2019-05-03T21:43:08.484Z,48.94
2019-05-03T21:45:48.640Z,48.81
2019-05-03T21:48:24.949Z,49.02
2019-05-03T21:50:57.177Z,49.52
2019-05-03T21:53:28.947Z,49.91
2019-05-03T21:56:00.989Z,50.24
2019-05-03T21:58:32.754Z,50.61
2019-05-03T22:01:08.113Z,51.34
2019-05-03T22:03:39.933Z,51.75
2019-05-03T22:06:15.429Z,52.19
2019-05-03T22:08:46.782Z,52.10
2019-05-03T22:11:19.239Z,52.25
2019-05-03T22:13:54.223Z,52.17
2019-05-03T22:16:51.859Z,52.53
2019-05-03T22:19:25.080Z,52.71
2019-05-03T22:22:21.918Z,52.77
2019-05-03T22:24:56.393Z,52.87
2019-05-03T22:27:34.840Z,52.94
2019-05-03T22:30:08.368Z,53.24
2019-05-03T22:32:40.474Z,53.55
2019-05-03T22:35:12.471Z,53.80
2019-05-03T22:37:44.688Z,54.02
2019-05-03T22:40:16.762Z,54.02
2019-05-03T22:42:48.646Z,53.89
2019-05-03T22:45:20.458Z,53.57
2019-05-03T22:47:52.573Z,53.49
2019-05-03T22:50:25.509Z,53.50
2019-05-03T22:52:57.785Z,54.26
2019-05-03T22:55:29.587Z,54.85
2019-05-03T22:58:01.478Z,55.03
2019-05-03T23:00:35.283Z,54.94
2019-05-03T23:03:06.839Z,54.58
2019-05-03T23:05:38.579Z,53.90
2019-05-03T23:08:10.487Z,53.61
2019-05-03T23:10:42.254Z,53.47
2019-05-03T23:13:15.411Z,53.38
2019-05-03T23:15:47.567Z,53.42
2019-05-03T23:18:19.626Z,53.51
2019-05-03T23:20:57.860Z,53.79
2019-05-03T23:23:47.289Z,54.00
2019-05-03T23:26:19.145Z,54.36
2019-05-03T23:28:51.215Z,54.77
2019-05-03T23:31:24.987Z,54.42
2019-05-03T23:33:56.786Z,54.48
2019-05-03T23:36:33.398Z,54.48
2019-05-03T23:39:06.285Z,54.37
2019-05-03T23:41:38.311Z,54.19
2019-05-03T23:44:10.069Z,53.88
2019-05-03T23:46:54.498Z,53.32
2019-05-03T23:49:26.063Z,53.26
2019-05-03T23:52:00.769Z,53.20
2019-05-03T23:54:32.528Z,52.95
2019-05-03T23:57:05.668Z,52.87
2019-05-03T23:59:37.467Z,52.85
